sensor_id;sensor_type;location;lat;lon;timestamp;P1;durP1;ratioP1;P2;durP2;ratioP2
48635;SDS011;34429;52.332;5.614;2023-02-23T00:02:17;65.15;;;30.67;;
48635;SDS011;34429;52.332;5.614;2023-02-23T00:04:45;75.78;;;31.83;;
48635;SDS011;34429;52.332;5.614;2023-02-23T00:07:14;68.60;;;29.85;;
48635;SDS011;34429;52.332;5.614;2023-02-23T00:09:44;70.63;;;31.23;;
48635;SDS011;34429;52.332;5.614;2023-02-23T00:12:15;77.97;;;30.83;;
48635;SDS011;34429;52.332;5.614;2023-02-23T00:14:44;75.05;;;32.08;;
48635;SDS011;34429;52.332;5.614;2023-02-23T00:17:13;67.13;;;29.90;;
48635;SDS011;34429;52.332;5.614;2023-02-23T00:19:41;70.00;;;29.33;;
48635;SDS011;34429;52.332;5.614;2023-02-23T00:22:10;75.18;;;31.40;;
48635;SDS011;34429;52.332;5.614;2023-02-23T00:24:38;78.27;;;32.97;;
48635;SDS011;34429;52.332;5.614;2023-02-23T00:27:07;71.40;;;31.00;;
48635;SDS011;34429;52.332;5.614;2023-02-23T00:29:44;69.57;;;31.45;;
48635;SDS011;34429;52.332;5.614;2023-02-23T00:32:13;77.43;;;30.35;;
48635;SDS011;34429;52.332;5.614;2023-02-23T00:34:44;75.05;;;31.60;;
48635;SDS011;34429;52.332;5.614;2023-02-23T00:37:13;77.80;;;32.35;;
48635;SDS011;34429;52.332;5.614;2023-02-23T00:39:42;68.03;;;31.15;;
48635;SDS011;34429;52.332;5.614;2023-02-23T00:42:11;72.47;;;30.65;;
48635;SDS011;34429;52.332;5.614;2023-02-23T00:44:40;71.95;;;31.55;;
48635;SDS011;34429;52.332;5.614;2023-02-23T00:47:14;76.85;;;32.90;;
48635;SDS011;34429;52.332;5.614;2023-02-23T00:49:42;71.40;;;29.75;;
48635;SDS011;34429;52.332;5.614;2023-02-23T00:52:11;75.32;;;32.78;;
48635;SDS011;34429;52.332;5.614;2023-02-23T00:54:41;64.43;;;29.67;;
48635;SDS011;34429;52.332;5.614;2023-02-23T00:57:09;68.22;;;30.13;;
48635;SDS011;34429;52.332;5.614;2023-02-23T00:59:37;68.65;;;29.98;;
48635;SDS011;34429;52.332;5.614;2023-02-23T01:02:06;78.53;;;30.95;;
48635;SDS011;34429;52.332;5.614;2023-02-23T01:04:37;73.20;;;32.17;;
48635;SDS011;34429;52.332;5.614;2023-02-23T01:07:05;73.97;;;30.42;;
48635;SDS011;34429;52.332;5.614;2023-02-23T01:09:37;69.75;;;30.02;;
48635;SDS011;34429;52.332;5.614;2023-02-23T01:12:05;70.63;;;30.33;;
48635;SDS011;34429;52.332;5.614;2023-02-23T01:14:34;76.38;;;33.05;;
48635;SDS011;34429;52.332;5.614;2023-02-23T01:17:04;73.57;;;30.80;;
48635;SDS011;34429;52.332;5.614;2023-02-23T01:19:33;77.88;;;31.30;;
48635;SDS011;34429;52.332;5.614;2023-02-23T01:22:04;74.97;;;31.43;;
48635;SDS011;34429;52.332;5.614;2023-02-23T01:24:32;75.38;;;31.27;;
48635;SDS011;34429;52.332;5.614;2023-02-23T01:27:02;70.43;;;31.30;;
48635;SDS011;34429;52.332;5.614;2023-02-23T01:29:31;70.13;;;30.67;;
48635;SDS011;34429;52.332;5.614;2023-02-23T01:31:59;71.70;;;31.15;;
48635;SDS011;34429;52.332;5.614;2023-02-23T01:34:27;75.55;;;30.52;;
48635;SDS011;34429;52.332;5.614;2023-02-23T01:36:56;75.15;;;30.52;;
48635;SDS011;34429;52.332;5.614;2023-02-23T01:39:27;68.07;;;27.88;;
48635;SDS011;34429;52.332;5.614;2023-02-23T01:41:56;76.88;;;31.67;;
48635;SDS011;34429;52.332;5.614;2023-02-23T01:47:22;85.60;;;31.20;;
48635;SDS011;34429;52.332;5.614;2023-02-23T01:49:51;77.38;;;31.15;;
48635;SDS011;34429;52.332;5.614;2023-02-23T01:52:19;69.93;;;30.70;;
48635;SDS011;34429;52.332;5.614;2023-02-23T01:54:51;63.45;;;29.17;;
48635;SDS011;34429;52.332;5.614;2023-02-23T01:57:22;71.93;;;30.85;;
48635;SDS011;34429;52.332;5.614;2023-02-23T01:59:51;75.75;;;30.27;;
48635;SDS011;34429;52.332;5.614;2023-02-23T02:02:21;77.35;;;31.85;;
48635;SDS011;34429;52.332;5.614;2023-02-23T02:04:56;67.85;;;28.80;;
48635;SDS011;34429;52.332;5.614;2023-02-23T02:07:26;71.68;;;30.45;;
48635;SDS011;34429;52.332;5.614;2023-02-23T02:10:01;71.68;;;30.63;;
48635;SDS011;34429;52.332;5.614;2023-02-23T02:12:58;75.55;;;30.92;;
48635;SDS011;34429;52.332;5.614;2023-02-23T02:15:30;71.13;;;31.27;;
48635;SDS011;34429;52.332;5.614;2023-02-23T02:18:04;74.97;;;31.85;;
48635;SDS011;34429;52.332;5.614;2023-02-23T02:26:47;72.63;;;29.60;;
48635;SDS011;34429;52.332;5.614;2023-02-23T02:29:42;74.82;;;31.08;;
48635;SDS011;34429;52.332;5.614;2023-02-23T02:38:49;78.20;;;30.92;;
48635;SDS011;34429;52.332;5.614;2023-02-23T02:41:24;74.43;;;31.45;;
48635;SDS011;34429;52.332;5.614;2023-02-23T02:44:23;71.95;;;30.83;;
48635;SDS011;34429;52.332;5.614;2023-02-23T02:46:58;77.57;;;32.60;;
48635;SDS011;34429;52.332;5.614;2023-02-23T02:49:35;71.72;;;30.38;;
48635;SDS011;34429;52.332;5.614;2023-02-23T02:52:13;77.00;;;30.67;;
48635;SDS011;34429;52.332;5.614;2023-02-23T02:54:50;73.75;;;29.13;;
48635;SDS011;34429;52.332;5.614;2023-02-23T02:57:25;76.03;;;30.42;;
48635;SDS011;34429;52.332;5.614;2023-02-23T02:59:56;80.70;;;31.60;;
48635;SDS011;34429;52.332;5.614;2023-02-23T03:02:37;74.13;;;29.48;;
48635;SDS011;34429;52.332;5.614;2023-02-23T03:05:22;73.90;;;29.85;;
48635;SDS011;34429;52.332;5.614;2023-02-23T03:08:08;67.53;;;29.48;;
48635;SDS011;34429;52.332;5.614;2023-02-23T03:10:58;76.47;;;30.92;;
48635;SDS011;34429;52.332;5.614;2023-02-23T03:13:46;75.25;;;31.02;;
48635;SDS011;34429;52.332;5.614;2023-02-23T03:16:36;66.80;;;27.65;;
48635;SDS011;34429;52.332;5.614;2023-02-23T03:19:22;69.28;;;31.35;;
48635;SDS011;34429;52.332;5.614;2023-02-23T03:22:07;66.05;;;27.58;;
48635;SDS011;34429;52.332;5.614;2023-02-23T03:24:56;79.03;;;29.55;;
48635;SDS011;34429;52.332;5.614;2023-02-23T03:27:46;76.38;;;29.85;;
48635;SDS011;34429;52.332;5.614;2023-02-23T03:30:35;72.68;;;30.98;;
48635;SDS011;34429;52.332;5.614;2023-02-23T03:33:31;75.03;;;30.13;;
48635;SDS011;34429;52.332;5.614;2023-02-23T03:36:18;74.25;;;30.58;;
48635;SDS011;34429;52.332;5.614;2023-02-23T03:39:05;75.50;;;32.15;;
48635;SDS011;34429;52.332;5.614;2023-02-23T03:41:54;74.70;;;30.25;;
48635;SDS011;34429;52.332;5.614;2023-02-23T03:44:40;74.28;;;30.08;;
48635;SDS011;34429;52.332;5.614;2023-02-23T03:47:24;73.90;;;29.42;;
48635;SDS011;34429;52.332;5.614;2023-02-23T03:50:11;82.80;;;29.85;;
48635;SDS011;34429;52.332;5.614;2023-02-23T03:52:57;78.93;;;32.60;;
48635;SDS011;34429;52.332;5.614;2023-02-23T03:55:42;76.68;;;30.42;;
48635;SDS011;34429;52.332;5.614;2023-02-23T03:58:31;79.43;;;31.55;;
48635;SDS011;34429;52.332;5.614;2023-02-23T04:01:19;80.75;;;33.00;;
48635;SDS011;34429;52.332;5.614;2023-02-23T04:04:01;82.82;;;31.50;;
48635;SDS011;34429;52.332;5.614;2023-02-23T04:06:44;70.15;;;28.42;;
48635;SDS011;34429;52.332;5.614;2023-02-23T04:09:27;71.63;;;28.65;;
48635;SDS011;34429;52.332;5.614;2023-02-23T04:12:09;84.97;;;32.58;;
48635;SDS011;34429;52.332;5.614;2023-02-23T04:14:56;70.85;;;30.48;;
48635;SDS011;34429;52.332;5.614;2023-02-23T04:17:31;77.57;;;32.45;;
48635;SDS011;34429;52.332;5.614;2023-02-23T04:20:00;79.35;;;30.00;;
48635;SDS011;34429;52.332;5.614;2023-02-23T04:22:29;76.07;;;33.00;;
48635;SDS011;34429;52.332;5.614;2023-02-23T04:24:57;68.72;;;28.77;;
48635;SDS011;34429;52.332;5.614;2023-02-23T04:27:25;68.18;;;29.42;;
48635;SDS011;34429;52.332;5.614;2023-02-23T04:29:53;85.70;;;32.63;;
48635;SDS011;34429;52.332;5.614;2023-02-23T04:32:22;74.05;;;30.95;;
48635;SDS011;34429;52.332;5.614;2023-02-23T04:34:53;73.72;;;29.90;;
48635;SDS011;34429;52.332;5.614;2023-02-23T04:37:21;81.70;;;31.75;;
48635;SDS011;34429;52.332;5.614;2023-02-23T04:39:49;70.78;;;29.13;;
48635;SDS011;34429;52.332;5.614;2023-02-23T04:42:18;69.88;;;29.15;;
48635;SDS011;34429;52.332;5.614;2023-02-23T04:44:47;73.85;;;29.55;;
48635;SDS011;34429;52.332;5.614;2023-02-23T04:47:15;73.07;;;29.77;;
48635;SDS011;34429;52.332;5.614;2023-02-23T04:49:49;73.60;;;30.73;;
48635;SDS011;34429;52.332;5.614;2023-02-23T04:52:20;76.60;;;30.25;;
48635;SDS011;34429;52.332;5.614;2023-02-23T04:56:24;83.53;;;31.63;;
48635;SDS011;34429;52.332;5.614;2023-02-23T04:58:52;85.00;;;32.10;;
48635;SDS011;34429;52.332;5.614;2023-02-23T05:01:21;76.40;;;30.58;;
48635;SDS011;34429;52.332;5.614;2023-02-23T05:03:50;76.47;;;31.70;;
48635;SDS011;34429;52.332;5.614;2023-02-23T05:06:18;86.18;;;33.15;;
48635;SDS011;34429;52.332;5.614;2023-02-23T05:08:46;86.65;;;33.60;;
48635;SDS011;34429;52.332;5.614;2023-02-23T05:11:15;79.53;;;33.15;;
48635;SDS011;34429;52.332;5.614;2023-02-23T05:13:46;83.20;;;33.15;;
48635;SDS011;34429;52.332;5.614;2023-02-23T05:16:14;86.78;;;31.75;;
48635;SDS011;34429;52.332;5.614;2023-02-23T05:18:42;81.90;;;34.92;;
48635;SDS011;34429;52.332;5.614;2023-02-23T05:21:11;84.45;;;33.78;;
48635;SDS011;34429;52.332;5.614;2023-02-23T05:23:40;81.20;;;31.88;;
48635;SDS011;34429;52.332;5.614;2023-02-23T05:26:09;80.40;;;31.95;;
48635;SDS011;34429;52.332;5.614;2023-02-23T05:28:39;84.72;;;32.33;;
48635;SDS011;34429;52.332;5.614;2023-02-23T05:31:12;78.80;;;30.02;;
48635;SDS011;34429;52.332;5.614;2023-02-23T05:33:40;79.47;;;30.27;;
48635;SDS011;34429;52.332;5.614;2023-02-23T05:36:10;79.10;;;29.25;;
48635;SDS011;34429;52.332;5.614;2023-02-23T05:38:40;82.40;;;31.55;;
48635;SDS011;34429;52.332;5.614;2023-02-23T05:41:09;76.15;;;29.67;;
48635;SDS011;34429;52.332;5.614;2023-02-23T05:43:40;82.20;;;30.48;;
48635;SDS011;34429;52.332;5.614;2023-02-23T05:46:09;76.43;;;30.70;;
48635;SDS011;34429;52.332;5.614;2023-02-23T05:48:42;79.93;;;28.90;;
48635;SDS011;34429;52.332;5.614;2023-02-23T05:51:11;65.70;;;26.30;;
48635;SDS011;34429;52.332;5.614;2023-02-23T05:53:41;71.50;;;26.42;;
48635;SDS011;34429;52.332;5.614;2023-02-23T05:58:42;70.25;;;27.23;;
48635;SDS011;34429;52.332;5.614;2023-02-23T06:01:13;70.15;;;27.60;;
48635;SDS011;34429;52.332;5.614;2023-02-23T06:03:42;72.07;;;27.52;;
48635;SDS011;34429;52.332;5.614;2023-02-23T06:06:11;68.37;;;26.80;;
48635;SDS011;34429;52.332;5.614;2023-02-23T06:08:39;66.53;;;27.97;;
48635;SDS011;34429;52.332;5.614;2023-02-23T06:11:08;69.95;;;27.42;;
48635;SDS011;34429;52.332;5.614;2023-02-23T06:13:37;64.22;;;24.98;;
48635;SDS011;34429;52.332;5.614;2023-02-23T06:16:06;65.27;;;26.23;;
48635;SDS011;34429;52.332;5.614;2023-02-23T06:21:05;75.80;;;27.38;;
48635;SDS011;34429;52.332;5.614;2023-02-23T06:23:34;63.93;;;25.37;;
48635;SDS011;34429;52.332;5.614;2023-02-23T06:26:03;68.90;;;26.70;;
48635;SDS011;34429;52.332;5.614;2023-02-23T06:31:00;64.47;;;24.85;;
48635;SDS011;34429;52.332;5.614;2023-02-23T06:33:30;59.55;;;24.58;;
48635;SDS011;34429;52.332;5.614;2023-02-23T06:36:01;58.05;;;24.08;;
48635;SDS011;34429;52.332;5.614;2023-02-23T06:40:33;66.30;;;23.83;;
48635;SDS011;34429;52.332;5.614;2023-02-23T06:43:01;66.55;;;24.67;;
48635;SDS011;34429;52.332;5.614;2023-02-23T06:45:30;62.67;;;24.08;;
48635;SDS011;34429;52.332;5.614;2023-02-23T06:47:58;59.10;;;23.15;;
48635;SDS011;34429;52.332;5.614;2023-02-23T06:50:28;56.08;;;23.27;;
48635;SDS011;34429;52.332;5.614;2023-02-23T06:52:56;66.68;;;25.70;;
48635;SDS011;34429;52.332;5.614;2023-02-23T06:55:24;63.65;;;23.80;;
48635;SDS011;34429;52.332;5.614;2023-02-23T06:57:55;60.42;;;24.42;;
48635;SDS011;34429;52.332;5.614;2023-02-23T07:00:24;58.88;;;23.02;;
48635;SDS011;34429;52.332;5.614;2023-02-23T07:02:55;52.83;;;22.23;;
48635;SDS011;34429;52.332;5.614;2023-02-23T07:05:24;57.35;;;23.63;;
48635;SDS011;34429;52.332;5.614;2023-02-23T07:07:52;57.75;;;24.02;;
48635;SDS011;34429;52.332;5.614;2023-02-23T07:10:21;56.33;;;21.92;;
48635;SDS011;34429;52.332;5.614;2023-02-23T07:12:49;55.38;;;21.75;;
48635;SDS011;34429;52.332;5.614;2023-02-23T07:15:20;58.25;;;23.58;;
48635;SDS011;34429;52.332;5.614;2023-02-23T07:17:48;57.53;;;23.75;;
48635;SDS011;34429;52.332;5.614;2023-02-23T07:20:17;60.28;;;24.08;;
48635;SDS011;34429;52.332;5.614;2023-02-23T07:25:15;59.47;;;23.35;;
48635;SDS011;34429;52.332;5.614;2023-02-23T07:27:43;54.97;;;22.80;;
48635;SDS011;34429;52.332;5.614;2023-02-23T07:30:12;67.93;;;25.05;;
48635;SDS011;34429;52.332;5.614;2023-02-23T07:32:46;59.30;;;25.40;;
48635;SDS011;34429;52.332;5.614;2023-02-23T07:35:14;64.63;;;23.58;;
48635;SDS011;34429;52.332;5.614;2023-02-23T07:37:42;64.73;;;23.23;;
48635;SDS011;34429;52.332;5.614;2023-02-23T07:40:11;58.20;;;25.17;;
48635;SDS011;34429;52.332;5.614;2023-02-23T07:42:41;64.60;;;24.15;;
48635;SDS011;34429;52.332;5.614;2023-02-23T07:45:10;66.45;;;24.80;;
48635;SDS011;34429;52.332;5.614;2023-02-23T07:47:38;71.03;;;27.70;;
48635;SDS011;34429;52.332;5.614;2023-02-23T07:50:09;69.80;;;25.73;;
48635;SDS011;34429;52.332;5.614;2023-02-23T07:52:39;69.65;;;25.35;;
48635;SDS011;34429;52.332;5.614;2023-02-23T07:55:09;71.25;;;26.20;;
48635;SDS011;34429;52.332;5.614;2023-02-23T07:57:38;75.03;;;26.88;;
48635;SDS011;34429;52.332;5.614;2023-02-23T08:00:07;76.90;;;27.67;;
48635;SDS011;34429;52.332;5.614;2023-02-23T08:02:36;72.32;;;27.42;;
48635;SDS011;34429;52.332;5.614;2023-02-23T08:05:04;78.35;;;27.17;;
48635;SDS011;34429;52.332;5.614;2023-02-23T08:07:36;70.03;;;26.10;;
48635;SDS011;34429;52.332;5.614;2023-02-23T08:10:05;73.57;;;27.55;;
48635;SDS011;34429;52.332;5.614;2023-02-23T08:15:02;73.10;;;26.63;;
48635;SDS011;34429;52.332;5.614;2023-02-23T08:17:32;72.10;;;26.40;;
48635;SDS011;34429;52.332;5.614;2023-02-23T08:20:00;79.07;;;27.43;;
48635;SDS011;34429;52.332;5.614;2023-02-23T08:22:37;75.90;;;26.67;;
48635;SDS011;34429;52.332;5.614;2023-02-23T08:25:06;69.97;;;25.75;;
48635;SDS011;34429;52.332;5.614;2023-02-23T08:30:04;75.15;;;25.10;;
48635;SDS011;34429;52.332;5.614;2023-02-23T08:32:34;73.70;;;24.52;;
48635;SDS011;34429;52.332;5.614;2023-02-23T08:35:02;72.57;;;24.77;;
48635;SDS011;34429;52.332;5.614;2023-02-23T08:37:31;66.95;;;24.25;;
48635;SDS011;34429;52.332;5.614;2023-02-23T08:40:03;67.22;;;25.23;;
48635;SDS011;34429;52.332;5.614;2023-02-23T08:42:32;73.65;;;24.85;;
48635;SDS011;34429;52.332;5.614;2023-02-23T08:45:01;73.03;;;24.80;;
48635;SDS011;34429;52.332;5.614;2023-02-23T08:47:29;62.50;;;23.42;;
48635;SDS011;34429;52.332;5.614;2023-02-23T08:49:58;68.00;;;24.55;;
48635;SDS011;34429;52.332;5.614;2023-02-23T08:52:32;66.67;;;23.70;;
48635;SDS011;34429;52.332;5.614;2023-02-23T08:55:24;62.97;;;23.85;;
48635;SDS011;34429;52.332;5.614;2023-02-23T08:57:53;59.65;;;23.80;;
48635;SDS011;34429;52.332;5.614;2023-02-23T09:00:21;62.95;;;23.33;;
48635;SDS011;34429;52.332;5.614;2023-02-23T09:02:50;67.82;;;24.77;;
48635;SDS011;34429;52.332;5.614;2023-02-23T09:05:18;61.60;;;23.07;;
48635;SDS011;34429;52.332;5.614;2023-02-23T09:07:47;63.28;;;23.67;;
48635;SDS011;34429;52.332;5.614;2023-02-23T09:10:16;68.65;;;25.40;;
48635;SDS011;34429;52.332;5.614;2023-02-23T09:12:51;63.63;;;23.88;;
48635;SDS011;34429;52.332;5.614;2023-02-23T09:15:20;71.63;;;24.23;;
48635;SDS011;34429;52.332;5.614;2023-02-23T09:17:49;63.63;;;23.42;;
48635;SDS011;34429;52.332;5.614;2023-02-23T09:20:18;59.50;;;22.77;;
48635;SDS011;34429;52.332;5.614;2023-02-23T09:22:50;55.35;;;22.27;;
48635;SDS011;34429;52.332;5.614;2023-02-23T09:25:25;60.47;;;22.33;;
48635;SDS011;34429;52.332;5.614;2023-02-23T09:27:58;65.70;;;22.45;;
48635;SDS011;34429;52.332;5.614;2023-02-23T09:30:26;59.83;;;22.17;;
48635;SDS011;34429;52.332;5.614;2023-02-23T09:32:54;65.37;;;23.47;;
48635;SDS011;34429;52.332;5.614;2023-02-23T09:35:23;57.05;;;21.38;;
48635;SDS011;34429;52.332;5.614;2023-02-23T09:37:52;59.10;;;22.30;;
48635;SDS011;34429;52.332;5.614;2023-02-23T09:40:23;60.15;;;21.27;;
48635;SDS011;34429;52.332;5.614;2023-02-23T09:42:59;67.00;;;23.05;;
48635;SDS011;34429;52.332;5.614;2023-02-23T09:45:36;56.70;;;20.90;;
48635;SDS011;34429;52.332;5.614;2023-02-23T09:48:11;59.75;;;21.45;;
48635;SDS011;34429;52.332;5.614;2023-02-23T09:50:44;60.55;;;19.88;;
48635;SDS011;34429;52.332;5.614;2023-02-23T09:53:20;61.05;;;20.30;;
48635;SDS011;34429;52.332;5.614;2023-02-23T09:55:55;51.63;;;20.70;;
48635;SDS011;34429;52.332;5.614;2023-02-23T09:58:28;53.85;;;20.27;;
48635;SDS011;34429;52.332;5.614;2023-02-23T10:01:04;56.13;;;20.52;;
48635;SDS011;34429;52.332;5.614;2023-02-23T10:04:12;56.33;;;19.85;;
48635;SDS011;34429;52.332;5.614;2023-02-23T10:06:48;61.60;;;20.38;;
48635;SDS011;34429;52.332;5.614;2023-02-23T10:09:23;56.60;;;20.30;;
48635;SDS011;34429;52.332;5.614;2023-02-23T10:12:06;51.28;;;18.83;;
48635;SDS011;34429;52.332;5.614;2023-02-23T10:17:33;65.05;;;21.95;;
48635;SDS011;34429;52.332;5.614;2023-02-23T10:20:10;56.80;;;21.73;;
48635;SDS011;34429;52.332;5.614;2023-02-23T10:22:45;61.17;;;19.58;;
48635;SDS011;34429;52.332;5.614;2023-02-23T10:25:17;52.72;;;20.17;;
48635;SDS011;34429;52.332;5.614;2023-02-23T10:27:51;57.25;;;20.48;;
48635;SDS011;34429;52.332;5.614;2023-02-23T10:30:26;52.33;;;19.17;;
48635;SDS011;34429;52.332;5.614;2023-02-23T10:32:58;45.45;;;18.42;;
48635;SDS011;34429;52.332;5.614;2023-02-23T10:35:31;52.67;;;18.35;;
48635;SDS011;34429;52.332;5.614;2023-02-23T10:38:00;50.80;;;19.02;;
48635;SDS011;34429;52.332;5.614;2023-02-23T10:40:30;55.20;;;18.58;;
48635;SDS011;34429;52.332;5.614;2023-02-23T10:43:00;51.05;;;18.88;;
48635;SDS011;34429;52.332;5.614;2023-02-23T10:45:33;51.08;;;18.67;;
48635;SDS011;34429;52.332;5.614;2023-02-23T10:48:06;47.90;;;18.00;;
48635;SDS011;34429;52.332;5.614;2023-02-23T10:50:41;55.50;;;19.20;;
48635;SDS011;34429;52.332;5.614;2023-02-23T10:53:12;48.33;;;18.17;;
48635;SDS011;34429;52.332;5.614;2023-02-23T10:55:44;57.40;;;19.15;;
48635;SDS011;34429;52.332;5.614;2023-02-23T10:58:14;50.63;;;18.13;;
48635;SDS011;34429;52.332;5.614;2023-02-23T11:00:53;46.42;;;18.88;;
48635;SDS011;34429;52.332;5.614;2023-02-23T11:03:28;52.70;;;18.45;;
48635;SDS011;34429;52.332;5.614;2023-02-23T11:06:00;54.22;;;19.02;;
48635;SDS011;34429;52.332;5.614;2023-02-23T11:08:30;49.17;;;18.17;;
48635;SDS011;34429;52.332;5.614;2023-02-23T11:13:49;48.63;;;17.17;;
48635;SDS011;34429;52.332;5.614;2023-02-23T11:16:21;50.08;;;18.23;;
48635;SDS011;34429;52.332;5.614;2023-02-23T11:18:52;47.53;;;18.55;;
48635;SDS011;34429;52.332;5.614;2023-02-23T11:21:23;50.10;;;17.27;;
48635;SDS011;34429;52.332;5.614;2023-02-23T11:23:53;51.60;;;17.17;;
48635;SDS011;34429;52.332;5.614;2023-02-23T11:26:27;46.03;;;17.52;;
48635;SDS011;34429;52.332;5.614;2023-02-23T11:29:01;49.10;;;18.90;;
48635;SDS011;34429;52.332;5.614;2023-02-23T11:31:38;46.42;;;17.52;;
48635;SDS011;34429;52.332;5.614;2023-02-23T11:34:09;46.05;;;17.70;;
48635;SDS011;34429;52.332;5.614;2023-02-23T11:36:57;39.90;;;16.33;;
48635;SDS011;34429;52.332;5.614;2023-02-23T11:39:28;43.00;;;15.02;;
48635;SDS011;34429;52.332;5.614;2023-02-23T11:42:02;37.88;;;14.95;;
48635;SDS011;34429;52.332;5.614;2023-02-23T11:44:39;34.90;;;14.15;;
48635;SDS011;34429;52.332;5.614;2023-02-23T11:47:18;40.28;;;14.93;;
48635;SDS011;34429;52.332;5.614;2023-02-23T11:49:50;40.38;;;13.73;;
48635;SDS011;34429;52.332;5.614;2023-02-23T11:57:19;38.03;;;14.65;;
48635;SDS011;34429;52.332;5.614;2023-02-23T12:02:22;42.10;;;15.60;;
48635;SDS011;34429;52.332;5.614;2023-02-23T12:04:52;39.95;;;15.63;;
48635;SDS011;34429;52.332;5.614;2023-02-23T12:10:13;47.97;;;16.70;;
48635;SDS011;34429;52.332;5.614;2023-02-23T12:12:49;49.72;;;17.58;;
48635;SDS011;34429;52.332;5.614;2023-02-23T12:15:29;45.77;;;17.13;;
48635;SDS011;34429;52.332;5.614;2023-02-23T12:18:09;51.10;;;16.70;;
48635;SDS011;34429;52.332;5.614;2023-02-23T12:20:45;44.80;;;15.88;;
48635;SDS011;34429;52.332;5.614;2023-02-23T12:23:19;36.03;;;15.20;;
48635;SDS011;34429;52.332;5.614;2023-02-23T12:25:52;44.88;;;15.75;;
48635;SDS011;34429;52.332;5.614;2023-02-23T12:28:25;39.30;;;16.52;;
48635;SDS011;34429;52.332;5.614;2023-02-23T12:31:00;37.28;;;15.40;;
48635;SDS011;34429;52.332;5.614;2023-02-23T12:33:36;32.92;;;14.43;;
48635;SDS011;34429;52.332;5.614;2023-02-23T12:36:11;33.88;;;15.00;;
48635;SDS011;34429;52.332;5.614;2023-02-23T12:38:50;73.03;;;32.97;;
48635;SDS011;34429;52.332;5.614;2023-02-23T12:41:25;35.97;;;14.40;;
48635;SDS011;34429;52.332;5.614;2023-02-23T12:44:03;34.55;;;13.15;;
48635;SDS011;34429;52.332;5.614;2023-02-23T12:46:42;37.72;;;14.90;;
48635;SDS011;34429;52.332;5.614;2023-02-23T12:49:19;34.35;;;13.82;;
48635;SDS011;34429;52.332;5.614;2023-02-23T12:51:57;32.03;;;13.85;;
48635;SDS011;34429;52.332;5.614;2023-02-23T12:54:30;36.25;;;15.10;;
48635;SDS011;34429;52.332;5.614;2023-02-23T12:57:02;42.67;;;18.02;;
48635;SDS011;34429;52.332;5.614;2023-02-23T13:02:57;31.15;;;12.25;;
48635;SDS011;34429;52.332;5.614;2023-02-23T13:05:54;30.38;;;11.93;;
48635;SDS011;34429;52.332;5.614;2023-02-23T13:08:32;24.05;;;11.05;;
48635;SDS011;34429;52.332;5.614;2023-02-23T13:11:15;27.00;;;10.63;;
48635;SDS011;34429;52.332;5.614;2023-02-23T13:13:51;24.70;;;11.23;;
48635;SDS011;34429;52.332;5.614;2023-02-23T13:16:25;24.05;;;9.98;;
48635;SDS011;34429;52.332;5.614;2023-02-23T13:18:59;23.90;;;9.63;;
48635;SDS011;34429;52.332;5.614;2023-02-23T13:21:40;23.20;;;10.60;;
48635;SDS011;34429;52.332;5.614;2023-02-23T13:24:18;26.08;;;10.45;;
48635;SDS011;34429;52.332;5.614;2023-02-23T13:26:52;21.55;;;9.98;;
48635;SDS011;34429;52.332;5.614;2023-02-23T13:29:29;19.98;;;9.38;;
48635;SDS011;34429;52.332;5.614;2023-02-23T13:32:03;25.63;;;9.73;;
48635;SDS011;34429;52.332;5.614;2023-02-23T13:34:38;22.70;;;10.10;;
48635;SDS011;34429;52.332;5.614;2023-02-23T13:37:12;22.92;;;10.27;;
48635;SDS011;34429;52.332;5.614;2023-02-23T13:39:48;25.55;;;11.57;;
48635;SDS011;34429;52.332;5.614;2023-02-23T13:42:25;26.48;;;10.98;;
48635;SDS011;34429;52.332;5.614;2023-02-23T13:45:09;26.05;;;10.10;;
48635;SDS011;34429;52.332;5.614;2023-02-23T13:47:52;33.58;;;13.88;;
48635;SDS011;34429;52.332;5.614;2023-02-23T13:50:25;54.25;;;18.63;;
48635;SDS011;34429;52.332;5.614;2023-02-23T13:53:04;37.60;;;12.85;;
48635;SDS011;34429;52.332;5.614;2023-02-23T13:55:36;61.70;;;19.08;;
48635;SDS011;34429;52.332;5.614;2023-02-23T13:58:16;42.78;;;14.30;;
48635;SDS011;34429;52.332;5.614;2023-02-23T14:01:02;49.30;;;15.40;;
48635;SDS011;34429;52.332;5.614;2023-02-23T14:03:40;41.35;;;15.50;;
48635;SDS011;34429;52.332;5.614;2023-02-23T14:06:12;84.88;;;27.08;;
48635;SDS011;34429;52.332;5.614;2023-02-23T14:08:48;51.13;;;18.77;;
48635;SDS011;34429;52.332;5.614;2023-02-23T14:14:10;51.90;;;18.83;;
48635;SDS011;34429;52.332;5.614;2023-02-23T14:16:41;61.08;;;20.60;;
48635;SDS011;34429;52.332;5.614;2023-02-23T14:21:59;59.70;;;21.27;;
48635;SDS011;34429;52.332;5.614;2023-02-23T14:24:36;61.80;;;22.02;;
48635;SDS011;34429;52.332;5.614;2023-02-23T14:27:17;78.65;;;24.02;;
48635;SDS011;34429;52.332;5.614;2023-02-23T14:32:52;73.13;;;23.65;;
48635;SDS011;34429;52.332;5.614;2023-02-23T14:35:36;75.28;;;22.63;;
48635;SDS011;34429;52.332;5.614;2023-02-23T14:38:14;80.47;;;24.90;;
48635;SDS011;34429;52.332;5.614;2023-02-23T14:40:52;76.28;;;24.85;;
48635;SDS011;34429;52.332;5.614;2023-02-23T14:43:30;83.93;;;24.15;;
48635;SDS011;34429;52.332;5.614;2023-02-23T14:46:07;82.28;;;25.13;;
48635;SDS011;34429;52.332;5.614;2023-02-23T14:48:40;95.80;;;28.20;;
48635;SDS011;34429;52.332;5.614;2023-02-23T14:51:13;91.88;;;24.13;;
48635;SDS011;34429;52.332;5.614;2023-02-23T14:53:48;88.78;;;25.15;;
48635;SDS011;34429;52.332;5.614;2023-02-23T14:56:23;61.85;;;20.02;;
48635;SDS011;34429;52.332;5.614;2023-02-23T14:58:53;67.10;;;19.30;;
48635;SDS011;34429;52.332;5.614;2023-02-23T15:01:36;53.85;;;16.73;;
48635;SDS011;34429;52.332;5.614;2023-02-23T15:04:06;52.85;;;14.88;;
48635;SDS011;34429;52.332;5.614;2023-02-23T15:06:37;47.70;;;13.77;;
48635;SDS011;34429;52.332;5.614;2023-02-23T15:09:11;42.97;;;13.02;;
48635;SDS011;34429;52.332;5.614;2023-02-23T15:11:48;35.88;;;10.77;;
48635;SDS011;34429;52.332;5.614;2023-02-23T15:14:19;29.42;;;9.77;;
48635;SDS011;34429;52.332;5.614;2023-02-23T15:16:48;19.60;;;6.20;;
48635;SDS011;34429;52.332;5.614;2023-02-23T15:19:18;23.95;;;6.60;;
48635;SDS011;34429;52.332;5.614;2023-02-23T15:21:49;17.63;;;5.53;;
48635;SDS011;34429;52.332;5.614;2023-02-23T15:24:20;13.63;;;3.70;;
48635;SDS011;34429;52.332;5.614;2023-02-23T15:26:54;11.40;;;3.70;;
48635;SDS011;34429;52.332;5.614;2023-02-23T15:29:23;10.40;;;3.30;;
48635;SDS011;34429;52.332;5.614;2023-02-23T15:32:08;15.52;;;3.22;;
48635;SDS011;34429;52.332;5.614;2023-02-23T15:34:39;15.98;;;4.25;;
48635;SDS011;34429;52.332;5.614;2023-02-23T15:37:10;15.27;;;4.13;;
48635;SDS011;34429;52.332;5.614;2023-02-23T15:39:46;17.33;;;4.45;;
48635;SDS011;34429;52.332;5.614;2023-02-23T15:42:21;26.92;;;6.10;;
48635;SDS011;34429;52.332;5.614;2023-02-23T15:44:53;18.10;;;4.10;;
48635;SDS011;34429;52.332;5.614;2023-02-23T15:47:23;34.78;;;5.05;;
48635;SDS011;34429;52.332;5.614;2023-02-23T15:50:06;34.38;;;5.00;;
48635;SDS011;34429;52.332;5.614;2023-02-23T15:52:43;24.95;;;5.65;;
48635;SDS011;34429;52.332;5.614;2023-02-23T15:55:17;41.95;;;9.93;;
48635;SDS011;34429;52.332;5.614;2023-02-23T15:57:56;66.95;;;19.38;;
48635;SDS011;34429;52.332;5.614;2023-02-23T16:00:27;26.27;;;7.20;;
48635;SDS011;34429;52.332;5.614;2023-02-23T16:02:59;23.83;;;5.93;;